sensor_id;sensor_type;location;lat;lon;timestamp;temperature;humidity
15036;DHT22;7615;48.574;13.474;2023-06-22T00:01:12;19.50;99.90
15036;DHT22;7615;48.574;13.474;2023-06-22T00:03:40;19.50;99.90
15036;DHT22;7615;48.574;13.474;2023-06-22T00:06:07;19.40;99.90
15036;DHT22;7615;48.574;13.474;2023-06-22T00:08:34;19.30;99.90
15036;DHT22;7615;48.574;13.474;2023-06-22T00:11:00;19.40;99.90
15036;DHT22;7615;48.574;13.474;2023-06-22T00:13:27;19.30;99.90
15036;DHT22;7615;48.574;13.474;2023-06-22T00:15:54;19.30;99.90
15036;DHT22;7615;48.574;13.474;2023-06-22T00:18:21;19.30;99.90
15036;DHT22;7615;48.574;13.474;2023-06-22T00:20:54;19.30;99.90
15036;DHT22;7615;48.574;13.474;2023-06-22T00:23:24;19.30;99.90
15036;DHT22;7615;48.574;13.474;2023-06-22T00:25:51;19.70;99.90
15036;DHT22;7615;48.574;13.474;2023-06-22T00:28:18;19.40;99.90
15036;DHT22;7615;48.574;13.474;2023-06-22T00:30:45;19.40;99.90
15036;DHT22;7615;48.574;13.474;2023-06-22T00:33:13;19.30;99.90
15036;DHT22;7615;48.574;13.474;2023-06-22T00:35:41;19.20;99.90
15036;DHT22;7615;48.574;13.474;2023-06-22T00:38:10;19.10;99.90
15036;DHT22;7615;48.574;13.474;2023-06-22T00:40:37;19.40;99.90
15036;DHT22;7615;48.574;13.474;2023-06-22T00:43:05;19.00;99.90
15036;DHT22;7615;48.574;13.474;2023-06-22T00:45:32;19.30;99.90
15036;DHT22;7615;48.574;13.474;2023-06-22T00:47:59;19.00;99.90
15036;DHT22;7615;48.574;13.474;2023-06-22T00:50:27;18.90;99.90
15036;DHT22;7615;48.574;13.474;2023-06-22T00:53:00;18.90;99.90
15036;DHT22;7615;48.574;13.474;2023-06-22T00:55:29;18.90;99.90
15036;DHT22;7615;48.574;13.474;2023-06-22T00:57:56;18.90;99.90
15036;DHT22;7615;48.574;13.474;2023-06-22T01:00:24;18.90;99.90
15036;DHT22;7615;48.574;13.474;2023-06-22T01:02:51;19.00;99.90
15036;DHT22;7615;48.574;13.474;2023-06-22T01:05:20;19.00;99.90
15036;DHT22;7615;48.574;13.474;2023-06-22T01:08:00;19.00;99.90
15036;DHT22;7615;48.574;13.474;2023-06-22T01:10:37;18.90;99.90
15036;DHT22;7615;48.574;13.474;2023-06-22T01:13:10;18.90;99.90
15036;DHT22;7615;48.574;13.474;2023-06-22T01:15:44;18.90;99.90
15036;DHT22;7615;48.574;13.474;2023-06-22T01:18:15;18.90;99.90
15036;DHT22;7615;48.574;13.474;2023-06-22T01:20:42;18.90;99.90
15036;DHT22;7615;48.574;13.474;2023-06-22T01:23:15;18.80;99.90
15036;DHT22;7615;48.574;13.474;2023-06-22T01:25:50;18.80;99.90
15036;DHT22;7615;48.574;13.474;2023-06-22T01:28:34;18.80;99.90
15036;DHT22;7615;48.574;13.474;2023-06-22T01:31:02;18.70;99.90
15036;DHT22;7615;48.574;13.474;2023-06-22T01:33:33;18.70;99.90
15036;DHT22;7615;48.574;13.474;2023-06-22T01:36:01;18.60;99.90
15036;DHT22;7615;48.574;13.474;2023-06-22T01:38:29;18.80;99.90
15036;DHT22;7615;48.574;13.474;2023-06-22T01:40:57;17.60;99.90
15036;DHT22;7615;48.574;13.474;2023-06-22T01:43:25;18.60;99.90
15036;DHT22;7615;48.574;13.474;2023-06-22T01:45:55;18.70;99.90
15036;DHT22;7615;48.574;13.474;2023-06-22T01:48:22;18.60;99.90
15036;DHT22;7615;48.574;13.474;2023-06-22T01:50:53;18.40;99.90
15036;DHT22;7615;48.574;13.474;2023-06-22T01:53:20;18.50;99.90
15036;DHT22;7615;48.574;13.474;2023-06-22T01:55:51;18.40;99.90
15036;DHT22;7615;48.574;13.474;2023-06-22T01:58:20;18.40;99.90
15036;DHT22;7615;48.574;13.474;2023-06-22T02:00:52;18.40;99.90
15036;DHT22;7615;48.574;13.474;2023-06-22T02:03:24;18.40;99.90
15036;DHT22;7615;48.574;13.474;2023-06-22T02:05:56;18.60;99.90
15036;DHT22;7615;48.574;13.474;2023-06-22T02:08:27;18.40;99.90
15036;DHT22;7615;48.574;13.474;2023-06-22T02:10:55;18.90;99.90
15036;DHT22;7615;48.574;13.474;2023-06-22T02:13:24;18.80;99.90
15036;DHT22;7615;48.574;13.474;2023-06-22T02:15:51;18.40;99.90
15036;DHT22;7615;48.574;13.474;2023-06-22T02:18:20;18.40;99.90
15036;DHT22;7615;48.574;13.474;2023-06-22T02:20:47;18.40;99.90
15036;DHT22;7615;48.574;13.474;2023-06-22T02:23:14;18.40;99.90
15036;DHT22;7615;48.574;13.474;2023-06-22T02:25:41;18.40;99.90
15036;DHT22;7615;48.574;13.474;2023-06-22T02:28:09;18.80;99.90
15036;DHT22;7615;48.574;13.474;2023-06-22T02:33:05;18.60;99.90
15036;DHT22;7615;48.574;13.474;2023-06-22T02:35:33;18.60;99.90
15036;DHT22;7615;48.574;13.474;2023-06-22T02:38:02;18.50;99.90
15036;DHT22;7615;48.574;13.474;2023-06-22T02:40:29;18.60;99.90
15036;DHT22;7615;48.574;13.474;2023-06-22T02:42:56;18.40;99.90
15036;DHT22;7615;48.574;13.474;2023-06-22T02:45:27;18.40;99.90
15036;DHT22;7615;48.574;13.474;2023-06-22T02:47:54;18.50;99.90
15036;DHT22;7615;48.574;13.474;2023-06-22T02:50:21;18.70;99.90
15036;DHT22;7615;48.574;13.474;2023-06-22T02:52:49;18.60;99.90
15036;DHT22;7615;48.574;13.474;2023-06-22T02:55:16;18.50;99.90
15036;DHT22;7615;48.574;13.474;2023-06-22T02:57:43;18.40;99.90
15036;DHT22;7615;48.574;13.474;2023-06-22T03:00:13;18.30;99.90
15036;DHT22;7615;48.574;13.474;2023-06-22T03:02:43;18.60;99.90
15036;DHT22;7615;48.574;13.474;2023-06-22T03:05:11;18.90;99.90
15036;DHT22;7615;48.574;13.474;2023-06-22T03:07:40;18.20;99.90
15036;DHT22;7615;48.574;13.474;2023-06-22T03:10:09;18.20;99.90
15036;DHT22;7615;48.574;13.474;2023-06-22T03:12:36;18.60;99.90
15036;DHT22;7615;48.574;13.474;2023-06-22T03:15:05;18.60;99.90
15036;DHT22;7615;48.574;13.474;2023-06-22T03:17:33;18.30;99.90
15036;DHT22;7615;48.574;13.474;2023-06-22T03:19:59;18.30;99.90
15036;DHT22;7615;48.574;13.474;2023-06-22T03:22:26;18.40;99.90
15036;DHT22;7615;48.574;13.474;2023-06-22T03:24:53;18.50;99.90
15036;DHT22;7615;48.574;13.474;2023-06-22T03:27:22;18.30;99.90
15036;DHT22;7615;48.574;13.474;2023-06-22T03:29:48;18.40;99.90
15036;DHT22;7615;48.574;13.474;2023-06-22T03:32:15;18.40;99.90
15036;DHT22;7615;48.574;13.474;2023-06-22T03:34:42;18.10;99.90
15036;DHT22;7615;48.574;13.474;2023-06-22T03:37:12;18.30;99.90
15036;DHT22;7615;48.574;13.474;2023-06-22T03:39:39;18.10;99.90
15036;DHT22;7615;48.574;13.474;2023-06-22T03:42:06;18.00;99.90
15036;DHT22;7615;48.574;13.474;2023-06-22T03:44:37;18.20;99.90
15036;DHT22;7615;48.574;13.474;2023-06-22T03:47:04;18.20;99.90
15036;DHT22;7615;48.574;13.474;2023-06-22T03:49:32;18.40;99.90
15036;DHT22;7615;48.574;13.474;2023-06-22T03:52:00;18.30;99.90
15036;DHT22;7615;48.574;13.474;2023-06-22T03:54:28;18.40;99.90
15036;DHT22;7615;48.574;13.474;2023-06-22T03:56:56;18.40;99.90
15036;DHT22;7615;48.574;13.474;2023-06-22T03:59:23;18.30;99.90
15036;DHT22;7615;48.574;13.474;2023-06-22T04:01:51;18.30;99.90
15036;DHT22;7615;48.574;13.474;2023-06-22T04:04:18;18.30;99.90
15036;DHT22;7615;48.574;13.474;2023-06-22T04:06:45;18.40;99.90
15036;DHT22;7615;48.574;13.474;2023-06-22T04:09:12;18.40;99.90
15036;DHT22;7615;48.574;13.474;2023-06-22T04:11:39;18.30;99.90
15036;DHT22;7615;48.574;13.474;2023-06-22T04:14:05;18.30;99.90
15036;DHT22;7615;48.574;13.474;2023-06-22T04:16:33;18.20;99.90
15036;DHT22;7615;48.574;13.474;2023-06-22T04:19:01;18.20;99.90
15036;DHT22;7615;48.574;13.474;2023-06-22T04:21:28;18.30;99.90
15036;DHT22;7615;48.574;13.474;2023-06-22T04:23:55;18.40;99.90
15036;DHT22;7615;48.574;13.474;2023-06-22T04:26:22;18.50;99.90
15036;DHT22;7615;48.574;13.474;2023-06-22T04:28:48;18.60;99.90
15036;DHT22;7615;48.574;13.474;2023-06-22T04:31:17;18.60;99.90
15036;DHT22;7615;48.574;13.474;2023-06-22T04:33:44;18.60;99.90
15036;DHT22;7615;48.574;13.474;2023-06-22T04:36:13;18.70;99.90
15036;DHT22;7615;48.574;13.474;2023-06-22T04:38:40;18.70;99.90
15036;DHT22;7615;48.574;13.474;2023-06-22T04:41:07;18.70;99.90
15036;DHT22;7615;48.574;13.474;2023-06-22T04:43:39;18.80;99.90
15036;DHT22;7615;48.574;13.474;2023-06-22T04:46:06;18.90;99.90
15036;DHT22;7615;48.574;13.474;2023-06-22T04:48:33;18.90;99.90
15036;DHT22;7615;48.574;13.474;2023-06-22T04:51:01;18.90;99.90
15036;DHT22;7615;48.574;13.474;2023-06-22T04:53:31;18.90;99.90
15036;DHT22;7615;48.574;13.474;2023-06-22T04:55:57;18.90;99.90
15036;DHT22;7615;48.574;13.474;2023-06-22T04:58:24;18.90;99.90
15036;DHT22;7615;48.574;13.474;2023-06-22T05:00:54;19.00;99.90
15036;DHT22;7615;48.574;13.474;2023-06-22T05:03:23;19.00;99.90
15036;DHT22;7615;48.574;13.474;2023-06-22T05:05:51;18.90;99.90
15036;DHT22;7615;48.574;13.474;2023-06-22T05:08:19;18.80;99.90
15036;DHT22;7615;48.574;13.474;2023-06-22T05:10:47;18.90;99.90
15036;DHT22;7615;48.574;13.474;2023-06-22T05:13:14;19.00;99.90
15036;DHT22;7615;48.574;13.474;2023-06-22T05:15:40;19.20;99.90
15036;DHT22;7615;48.574;13.474;2023-06-22T05:18:08;19.30;99.90
15036;DHT22;7615;48.574;13.474;2023-06-22T05:20:34;19.40;99.90
15036;DHT22;7615;48.574;13.474;2023-06-22T05:23:01;19.50;99.90
15036;DHT22;7615;48.574;13.474;2023-06-22T05:25:28;19.50;99.90
15036;DHT22;7615;48.574;13.474;2023-06-22T05:27:59;19.60;99.90
15036;DHT22;7615;48.574;13.474;2023-06-22T05:30:27;19.60;99.90
15036;DHT22;7615;48.574;13.474;2023-06-22T05:32:54;19.70;99.90
15036;DHT22;7615;48.574;13.474;2023-06-22T05:35:20;19.80;99.90
15036;DHT22;7615;48.574;13.474;2023-06-22T05:37:47;19.90;99.90
15036;DHT22;7615;48.574;13.474;2023-06-22T05:40:14;20.00;99.90
15036;DHT22;7615;48.574;13.474;2023-06-22T05:42:41;20.10;99.90
15036;DHT22;7615;48.574;13.474;2023-06-22T05:45:10;20.10;99.90
15036;DHT22;7615;48.574;13.474;2023-06-22T05:47:37;20.00;99.90
15036;DHT22;7615;48.574;13.474;2023-06-22T05:50:05;20.10;99.90
15036;DHT22;7615;48.574;13.474;2023-06-22T05:52:34;20.20;99.90
15036;DHT22;7615;48.574;13.474;2023-06-22T05:55:02;20.30;99.90
15036;DHT22;7615;48.574;13.474;2023-06-22T05:57:29;20.50;99.90
15036;DHT22;7615;48.574;13.474;2023-06-22T05:59:56;20.50;99.90
15036;DHT22;7615;48.574;13.474;2023-06-22T06:02:24;20.70;99.90
15036;DHT22;7615;48.574;13.474;2023-06-22T06:04:51;20.80;99.90
15036;DHT22;7615;48.574;13.474;2023-06-22T06:07:18;20.90;99.90
15036;DHT22;7615;48.574;13.474;2023-06-22T06:09:45;21.00;99.90
15036;DHT22;7615;48.574;13.474;2023-06-22T06:12:13;21.20;99.90
15036;DHT22;7615;48.574;13.474;2023-06-22T06:14:40;21.20;99.90
15036;DHT22;7615;48.574;13.474;2023-06-22T06:17:07;21.20;99.90
15036;DHT22;7615;48.574;13.474;2023-06-22T06:19:35;21.20;99.90
15036;DHT22;7615;48.574;13.474;2023-06-22T06:22:02;21.30;99.90
15036;DHT22;7615;48.574;13.474;2023-06-22T06:24:29;21.30;99.90
15036;DHT22;7615;48.574;13.474;2023-06-22T06:26:56;21.40;99.90
15036;DHT22;7615;48.574;13.474;2023-06-22T06:29:23;21.50;99.90
15036;DHT22;7615;48.574;13.474;2023-06-22T06:31:50;21.60;99.90
15036;DHT22;7615;48.574;13.474;2023-06-22T06:34:17;21.60;99.90
15036;DHT22;7615;48.574;13.474;2023-06-22T06:36:46;21.80;99.90
15036;DHT22;7615;48.574;13.474;2023-06-22T06:39:13;21.90;99.90
15036;DHT22;7615;48.574;13.474;2023-06-22T06:41:41;22.10;99.90
15036;DHT22;7615;48.574;13.474;2023-06-22T06:44:08;22.20;99.90
15036;DHT22;7615;48.574;13.474;2023-06-22T06:46:35;22.40;99.90
15036;DHT22;7615;48.574;13.474;2023-06-22T06:49:02;22.60;99.90
15036;DHT22;7615;48.574;13.474;2023-06-22T06:51:29;22.80;99.90
15036;DHT22;7615;48.574;13.474;2023-06-22T06:53:57;23.10;99.90
15036;DHT22;7615;48.574;13.474;2023-06-22T06:56:24;23.10;99.90
15036;DHT22;7615;48.574;13.474;2023-06-22T06:58:51;23.30;99.90
15036;DHT22;7615;48.574;13.474;2023-06-22T07:01:19;23.40;99.90
15036;DHT22;7615;48.574;13.474;2023-06-22T07:03:46;23.60;99.90
15036;DHT22;7615;48.574;13.474;2023-06-22T07:06:13;23.80;99.90
15036;DHT22;7615;48.574;13.474;2023-06-22T07:08:41;24.10;99.90
15036;DHT22;7615;48.574;13.474;2023-06-22T07:11:10;24.20;99.90
15036;DHT22;7615;48.574;13.474;2023-06-22T07:13:37;24.40;99.90
15036;DHT22;7615;48.574;13.474;2023-06-22T07:16:04;24.60;99.90
15036;DHT22;7615;48.574;13.474;2023-06-22T07:18:31;24.80;99.90
15036;DHT22;7615;48.574;13.474;2023-06-22T07:20:58;24.50;99.90
15036;DHT22;7615;48.574;13.474;2023-06-22T07:23:25;24.50;99.90
15036;DHT22;7615;48.574;13.474;2023-06-22T07:25:52;24.60;99.90
15036;DHT22;7615;48.574;13.474;2023-06-22T07:28:21;24.70;99.90
15036;DHT22;7615;48.574;13.474;2023-06-22T07:30:48;24.90;99.90
15036;DHT22;7615;48.574;13.474;2023-06-22T07:33:16;25.10;99.90
15036;DHT22;7615;48.574;13.474;2023-06-22T07:35:43;25.20;99.90
15036;DHT22;7615;48.574;13.474;2023-06-22T07:38:11;25.40;99.90
15036;DHT22;7615;48.574;13.474;2023-06-22T07:40:37;25.60;99.90
15036;DHT22;7615;48.574;13.474;2023-06-22T07:43:04;25.80;99.90
15036;DHT22;7615;48.574;13.474;2023-06-22T07:45:32;26.00;99.90
15036;DHT22;7615;48.574;13.474;2023-06-22T07:48:00;26.10;99.90
15036;DHT22;7615;48.574;13.474;2023-06-22T07:50:27;26.20;99.90
15036;DHT22;7615;48.574;13.474;2023-06-22T07:52:54;26.30;99.90
15036;DHT22;7615;48.574;13.474;2023-06-22T07:55:21;26.30;99.90
15036;DHT22;7615;48.574;13.474;2023-06-22T07:57:49;26.30;99.90
15036;DHT22;7615;48.574;13.474;2023-06-22T08:00:17;26.40;99.90
15036;DHT22;7615;48.574;13.474;2023-06-22T08:02:47;26.50;99.90
15036;DHT22;7615;48.574;13.474;2023-06-22T08:05:14;26.60;99.90
15036;DHT22;7615;48.574;13.474;2023-06-22T08:07:41;26.60;99.90
15036;DHT22;7615;48.574;13.474;2023-06-22T08:10:11;26.60;99.90
15036;DHT22;7615;48.574;13.474;2023-06-22T08:12:38;26.80;99.90
15036;DHT22;7615;48.574;13.474;2023-06-22T08:15:06;27.10;99.90
15036;DHT22;7615;48.574;13.474;2023-06-22T08:17:36;27.20;99.90
15036;DHT22;7615;48.574;13.474;2023-06-22T08:20:04;27.40;99.90
15036;DHT22;7615;48.574;13.474;2023-06-22T08:22:36;27.50;99.90
15036;DHT22;7615;48.574;13.474;2023-06-22T08:25:03;27.60;99.90
15036;DHT22;7615;48.574;13.474;2023-06-22T08:27:31;27.50;99.90
15036;DHT22;7615;48.574;13.474;2023-06-22T08:29:58;27.50;99.90
15036;DHT22;7615;48.574;13.474;2023-06-22T08:32:25;27.50;99.90
15036;DHT22;7615;48.574;13.474;2023-06-22T08:34:52;27.50;99.90
15036;DHT22;7615;48.574;13.474;2023-06-22T08:37:21;27.70;99.90
15036;DHT22;7615;48.574;13.474;2023-06-22T08:39:50;27.90;99.90
15036;DHT22;7615;48.574;13.474;2023-06-22T08:42:17;28.10;99.90
15036;DHT22;7615;48.574;13.474;2023-06-22T08:44:44;28.20;99.90
15036;DHT22;7615;48.574;13.474;2023-06-22T08:47:11;28.20;99.90
15036;DHT22;7615;48.574;13.474;2023-06-22T08:49:38;28.30;99.90
15036;DHT22;7615;48.574;13.474;2023-06-22T08:52:05;28.40;99.90
15036;DHT22;7615;48.574;13.474;2023-06-22T08:54:34;28.60;99.90
15036;DHT22;7615;48.574;13.474;2023-06-22T08:57:01;28.70;99.90
15036;DHT22;7615;48.574;13.474;2023-06-22T08:59:28;28.80;99.90
15036;DHT22;7615;48.574;13.474;2023-06-22T09:01:55;28.70;99.90
15036;DHT22;7615;48.574;13.474;2023-06-22T09:04:22;28.70;99.90
15036;DHT22;7615;48.574;13.474;2023-06-22T09:06:49;28.90;99.90
15036;DHT22;7615;48.574;13.474;2023-06-22T09:09:17;29.00;99.90
15036;DHT22;7615;48.574;13.474;2023-06-22T09:11:47;29.00;99.90
15036;DHT22;7615;48.574;13.474;2023-06-22T09:14:13;29.10;99.90
15036;DHT22;7615;48.574;13.474;2023-06-22T09:16:40;29.10;99.90
15036;DHT22;7615;48.574;13.474;2023-06-22T09:19:07;29.10;99.90
15036;DHT22;7615;48.574;13.474;2023-06-22T09:21:34;29.30;99.90
15036;DHT22;7615;48.574;13.474;2023-06-22T09:24:01;29.50;99.90
15036;DHT22;7615;48.574;13.474;2023-06-22T09:26:28;29.50;99.90
15036;DHT22;7615;48.574;13.474;2023-06-22T09:28:56;29.70;99.90
15036;DHT22;7615;48.574;13.474;2023-06-22T09:31:23;29.80;99.90
15036;DHT22;7615;48.574;13.474;2023-06-22T09:33:52;29.80;99.90
15036;DHT22;7615;48.574;13.474;2023-06-22T09:36:20;30.00;99.90
15036;DHT22;7615;48.574;13.474;2023-06-22T09:38:47;30.10;99.90
15036;DHT22;7615;48.574;13.474;2023-06-22T09:41:14;30.20;99.90
15036;DHT22;7615;48.574;13.474;2023-06-22T09:43:42;30.30;99.90
15036;DHT22;7615;48.574;13.474;2023-06-22T09:46:10;30.40;99.90
15036;DHT22;7615;48.574;13.474;2023-06-22T09:48:37;30.30;99.90
15036;DHT22;7615;48.574;13.474;2023-06-22T09:51:04;30.40;99.90
15036;DHT22;7615;48.574;13.474;2023-06-22T09:53:31;30.40;99.90
15036;DHT22;7615;48.574;13.474;2023-06-22T09:55:58;30.50;99.90
15036;DHT22;7615;48.574;13.474;2023-06-22T09:58:26;30.50;99.90
15036;DHT22;7615;48.574;13.474;2023-06-22T10:00:53;30.60;99.90
15036;DHT22;7615;48.574;13.474;2023-06-22T10:03:21;30.60;99.90
15036;DHT22;7615;48.574;13.474;2023-06-22T10:05:48;30.70;99.90
15036;DHT22;7615;48.574;13.474;2023-06-22T10:08:15;30.80;99.90
15036;DHT22;7615;48.574;13.474;2023-06-22T10:10:42;30.80;99.90
15036;DHT22;7615;48.574;13.474;2023-06-22T10:13:10;30.90;99.90
15036;DHT22;7615;48.574;13.474;2023-06-22T10:15:37;31.00;99.90
15036;DHT22;7615;48.574;13.474;2023-06-22T10:18:04;31.10;99.90
15036;DHT22;7615;48.574;13.474;2023-06-22T10:20:33;31.20;99.90
15036;DHT22;7615;48.574;13.474;2023-06-22T10:23:00;31.30;99.90
15036;DHT22;7615;48.574;13.474;2023-06-22T10:25:27;31.40;99.90
15036;DHT22;7615;48.574;13.474;2023-06-22T10:27:54;31.60;99.90
15036;DHT22;7615;48.574;13.474;2023-06-22T10:30:21;31.70;99.90
15036;DHT22;7615;48.574;13.474;2023-06-22T10:32:49;31.70;99.90
15036;DHT22;7615;48.574;13.474;2023-06-22T10:35:16;31.70;99.90
15036;DHT22;7615;48.574;13.474;2023-06-22T10:37:45;31.70;99.90
15036;DHT22;7615;48.574;13.474;2023-06-22T10:40:13;31.80;99.90
15036;DHT22;7615;48.574;13.474;2023-06-22T10:42:41;31.90;99.90
15036;DHT22;7615;48.574;13.474;2023-06-22T10:45:09;32.00;99.90
15036;DHT22;7615;48.574;13.474;2023-06-22T10:47:36;32.10;99.90
15036;DHT22;7615;48.574;13.474;2023-06-22T10:50:03;32.20;99.90
15036;DHT22;7615;48.574;13.474;2023-06-22T10:52:30;32.10;99.90
15036;DHT22;7615;48.574;13.474;2023-06-22T10:54:58;31.90;99.90
15036;DHT22;7615;48.574;13.474;2023-06-22T10:57:25;31.70;99.90
15036;DHT22;7615;48.574;13.474;2023-06-22T10:59:52;31.70;99.90
15036;DHT22;7615;48.574;13.474;2023-06-22T11:02:19;31.50;99.90
15036;DHT22;7615;48.574;13.474;2023-06-22T11:04:46;31.50;99.90
15036;DHT22;7615;48.574;13.474;2023-06-22T11:07:13;31.50;99.90
15036;DHT22;7615;48.574;13.474;2023-06-22T11:09:40;31.50;99.90
15036;DHT22;7615;48.574;13.474;2023-06-22T11:12:08;31.50;99.90
15036;DHT22;7615;48.574;13.474;2023-06-22T11:14:35;31.60;99.90
15036;DHT22;7615;48.574;13.474;2023-06-22T11:17:03;31.70;99.90
15036;DHT22;7615;48.574;13.474;2023-06-22T11:19:29;31.80;99.90
15036;DHT22;7615;48.574;13.474;2023-06-22T11:21:56;31.90;99.90
15036;DHT22;7615;48.574;13.474;2023-06-22T11:24:23;32.00;99.90
15036;DHT22;7615;48.574;13.474;2023-06-22T11:26:50;32.10;99.90
15036;DHT22;7615;48.574;13.474;2023-06-22T11:29:18;32.20;99.90
15036;DHT22;7615;48.574;13.474;2023-06-22T11:31:46;32.20;99.90
15036;DHT22;7615;48.574;13.474;2023-06-22T11:34:13;32.20;99.90
15036;DHT22;7615;48.574;13.474;2023-06-22T11:36:40;32.20;99.90
15036;DHT22;7615;48.574;13.474;2023-06-22T11:39:08;32.10;99.90
15036;DHT22;7615;48.574;13.474;2023-06-22T11:41:35;32.20;99.90
15036;DHT22;7615;48.574;13.474;2023-06-22T11:44:02;32.20;99.90
15036;DHT22;7615;48.574;13.474;2023-06-22T11:46:32;32.20;99.90
15036;DHT22;7615;48.574;13.474;2023-06-22T11:49:00;32.30;99.90
15036;DHT22;7615;48.574;13.474;2023-06-22T11:51:27;32.30;99.90
15036;DHT22;7615;48.574;13.474;2023-06-22T11:53:56;32.30;99.90
15036;DHT22;7615;48.574;13.474;2023-06-22T11:56:24;32.40;99.90
15036;DHT22;7615;48.574;13.474;2023-06-22T11:58:51;32.50;99.90
15036;DHT22;7615;48.574;13.474;2023-06-22T12:01:19;32.50;99.90
15036;DHT22;7615;48.574;13.474;2023-06-22T12:03:48;32.50;99.90
15036;DHT22;7615;48.574;13.474;2023-06-22T12:06:14;32.60;99.90
15036;DHT22;7615;48.574;13.474;2023-06-22T12:08:41;32.60;99.90
15036;DHT22;7615;48.574;13.474;2023-06-22T12:11:08;32.70;99.90
15036;DHT22;7615;48.574;13.474;2023-06-22T12:13:35;32.70;99.90
15036;DHT22;7615;48.574;13.474;2023-06-22T12:16:02;32.90;99.90
15036;DHT22;7615;48.574;13.474;2023-06-22T12:18:29;33.00;99.90
15036;DHT22;7615;48.574;13.474;2023-06-22T12:20:57;32.70;99.90
15036;DHT22;7615;48.574;13.474;2023-06-22T12:23:25;32.70;99.90
15036;DHT22;7615;48.574;13.474;2023-06-22T12:25:52;32.70;99.90
15036;DHT22;7615;48.574;13.474;2023-06-22T12:28:18;32.70;99.90
15036;DHT22;7615;48.574;13.474;2023-06-22T12:30:45;32.80;99.90
15036;DHT22;7615;48.574;13.474;2023-06-22T12:33:12;32.70;99.90
15036;DHT22;7615;48.574;13.474;2023-06-22T12:35:39;32.90;99.90
15036;DHT22;7615;48.574;13.474;2023-06-22T12:38:08;33.00;99.90
15036;DHT22;7615;48.574;13.474;2023-06-22T12:40:34;33.00;99.90
15036;DHT22;7615;48.574;13.474;2023-06-22T12:43:01;33.10;99.90
15036;DHT22;7615;48.574;13.474;2023-06-22T12:45:28;33.20;99.90
15036;DHT22;7615;48.574;13.474;2023-06-22T12:47:58;33.40;99.80
15036;DHT22;7615;48.574;13.474;2023-06-22T12:50:27;33.40;97.90
15036;DHT22;7615;48.574;13.474;2023-06-22T12:52:54;33.60;97.50
15036;DHT22;7615;48.574;13.474;2023-06-22T12:55:22;33.70;97.80
15036;DHT22;7615;48.574;13.474;2023-06-22T12:57:49;33.90;97.90
15036;DHT22;7615;48.574;13.474;2023-06-22T13:00:17;34.00;97.30
15036;DHT22;7615;48.574;13.474;2023-06-22T13:02:44;34.10;97.10
15036;DHT22;7615;48.574;13.474;2023-06-22T13:05:11;34.20;97.60
15036;DHT22;7615;48.574;13.474;2023-06-22T13:07:38;34.20;96.80
15036;DHT22;7615;48.574;13.474;2023-06-22T13:10:06;34.30;96.00
15036;DHT22;7615;48.574;13.474;2023-06-22T13:12:34;34.40;95.60
15036;DHT22;7615;48.574;13.474;2023-06-22T13:15:01;34.40;95.90
15036;DHT22;7615;48.574;13.474;2023-06-22T13:17:29;34.50;95.10
15036;DHT22;7615;48.574;13.474;2023-06-22T13:19:56;34.60;95.30
15036;DHT22;7615;48.574;13.474;2023-06-22T13:22:30;34.60;95.30
15036;DHT22;7615;48.574;13.474;2023-06-22T13:24:58;34.60;94.10
15036;DHT22;7615;48.574;13.474;2023-06-22T13:27:25;34.50;95.10
15036;DHT22;7615;48.574;13.474;2023-06-22T13:29:53;34.30;95.50
15036;DHT22;7615;48.574;13.474;2023-06-22T13:32:20;34.20;95.50
15036;DHT22;7615;48.574;13.474;2023-06-22T13:34:47;34.50;95.10
15036;DHT22;7615;48.574;13.474;2023-06-22T13:37:14;34.80;94.80
15036;DHT22;7615;48.574;13.474;2023-06-22T13:39:41;35.00;94.60
15036;DHT22;7615;48.574;13.474;2023-06-22T13:42:08;35.20;94.20
15036;DHT22;7615;48.574;13.474;2023-06-22T13:44:35;35.20;93.70
15036;DHT22;7615;48.574;13.474;2023-06-22T13:47:04;35.10;93.50
15036;DHT22;7615;48.574;13.474;2023-06-22T13:49:31;34.90;93.90
15036;DHT22;7615;48.574;13.474;2023-06-22T13:51:58;34.90;94.30
15036;DHT22;7615;48.574;13.474;2023-06-22T13:54:25;34.80;94.90
15036;DHT22;7615;48.574;13.474;2023-06-22T13:56:52;34.70;95.40
15036;DHT22;7615;48.574;13.474;2023-06-22T13:59:19;34.50;94.60
15036;DHT22;7615;48.574;13.474;2023-06-22T14:01:46;34.80;95.50
15036;DHT22;7615;48.574;13.474;2023-06-22T14:04:14;35.00;94.90
15036;DHT22;7615;48.574;13.474;2023-06-22T14:06:41;35.10;94.70
15036;DHT22;7615;48.574;13.474;2023-06-22T14:09:08;35.10;94.70
15036;DHT22;7615;48.574;13.474;2023-06-22T14:11:35;35.20;94.60
15036;DHT22;7615;48.574;13.474;2023-06-22T14:14:02;35.20;93.90
15036;DHT22;7615;48.574;13.474;2023-06-22T14:16:29;35.10;94.10
15036;DHT22;7615;48.574;13.474;2023-06-22T14:18:56;35.00;94.80
15036;DHT22;7615;48.574;13.474;2023-06-22T14:21:26;35.00;94.70
15036;DHT22;7615;48.574;13.474;2023-06-22T14:23:52;34.90;95.50
15036;DHT22;7615;48.574;13.474;2023-06-22T14:26:19;35.00;95.40
15036;DHT22;7615;48.574;13.474;2023-06-22T14:28:48;35.10;95.40
15036;DHT22;7615;48.574;13.474;2023-06-22T14:31:16;34.90;95.60
15036;DHT22;7615;48.574;13.474;2023-06-22T14:33:44;34.50;95.90
15036;DHT22;7615;48.574;13.474;2023-06-22T14:36:17;34.30;96.20
15036;DHT22;7615;48.574;13.474;2023-06-22T14:38:45;34.20;96.40
15036;DHT22;7615;48.574;13.474;2023-06-22T14:41:12;34.20;96.60
15036;DHT22;7615;48.574;13.474;2023-06-22T14:43:44;34.40;97.00
15036;DHT22;7615;48.574;13.474;2023-06-22T14:46:12;34.60;97.10
15036;DHT22;7615;48.574;13.474;2023-06-22T14:48:38;34.90;97.40
15036;DHT22;7615;48.574;13.474;2023-06-22T14:51:05;35.10;97.50
15036;DHT22;7615;48.574;13.474;2023-06-22T14:53:32;35.20;97.60
15036;DHT22;7615;48.574;13.474;2023-06-22T14:56:01;35.20;97.30
15036;DHT22;7615;48.574;13.474;2023-06-22T14:58:28;35.10;97.70
15036;DHT22;7615;48.574;13.474;2023-06-22T15:00:55;35.00;98.00
15036;DHT22;7615;48.574;13.474;2023-06-22T15:03:22;34.80;98.90
15036;DHT22;7615;48.574;13.474;2023-06-22T15:05:53;34.70;99.20
15036;DHT22;7615;48.574;13.474;2023-06-22T15:08:20;34.70;99.10
15036;DHT22;7615;48.574;13.474;2023-06-22T15:10:47;34.70;99.10
15036;DHT22;7615;48.574;13.474;2023-06-22T15:13:18;34.70;98.40
15036;DHT22;7615;48.574;13.474;2023-06-22T15:15:46;34.60;98.20
15036;DHT22;7615;48.574;13.474;2023-06-22T15:18:13;34.60;97.00
15036;DHT22;7615;48.574;13.474;2023-06-22T15:20:41;34.70;97.50
15036;DHT22;7615;48.574;13.474;2023-06-22T15:23:10;34.80;97.40
15036;DHT22;7615;48.574;13.474;2023-06-22T15:25:37;34.80;97.70
15036;DHT22;7615;48.574;13.474;2023-06-22T15:28:04;34.70;98.10
15036;DHT22;7615;48.574;13.474;2023-06-22T15:30:32;34.50;98.60
15036;DHT22;7615;48.574;13.474;2023-06-22T15:33:00;34.40;99.00
15036;DHT22;7615;48.574;13.474;2023-06-22T15:35:28;34.10;99.30